sensor_id;sensor_type;location;lat;lon;timestamp;P1;durP1;ratioP1;P2;durP2;ratioP2
77298;SDS011;66361;52.034;20.656;2023-06-04T00:01:02;11.27;;;6.68;;
77298;SDS011;66361;52.034;20.656;2023-06-04T00:05:30;10.88;;;6.38;;
77298;SDS011;66361;52.034;20.656;2023-06-04T00:09:35;10.32;;;7.57;;
77298;SDS011;66361;52.034;20.656;2023-06-04T00:13:38;9.48;;;4.85;;
77298;SDS011;66361;52.034;20.656;2023-06-04T00:17:43;10.43;;;5.28;;
77298;SDS011;66361;52.034;20.656;2023-06-04T00:21:47;10.82;;;6.18;;
77298;SDS011;66361;52.034;20.656;2023-06-04T00:25:51;8.88;;;5.22;;
77298;SDS011;66361;52.034;20.656;2023-06-04T00:29:54;7.45;;;5.50;;
77298;SDS011;66361;52.034;20.656;2023-06-04T00:33:59;6.72;;;4.38;;
77298;SDS011;66361;52.034;20.656;2023-06-04T00:38:02;8.20;;;4.80;;
77298;SDS011;66361;52.034;20.656;2023-06-04T00:42:07;6.00;;;4.30;;
77298;SDS011;66361;52.034;20.656;2023-06-04T00:46:10;6.70;;;4.95;;
77298;SDS011;66361;52.034;20.656;2023-06-04T00:50:21;7.10;;;4.47;;
77298;SDS011;66361;52.034;20.656;2023-06-04T00:54:24;6.93;;;4.18;;
77298;SDS011;66361;52.034;20.656;2023-06-04T00:58:28;6.32;;;4.15;;
77298;SDS011;66361;52.034;20.656;2023-06-04T01:02:31;5.80;;;4.43;;
77298;SDS011;66361;52.034;20.656;2023-06-04T01:06:39;7.53;;;4.57;;
77298;SDS011;66361;52.034;20.656;2023-06-04T01:10:50;9.07;;;4.10;;
77298;SDS011;66361;52.034;20.656;2023-06-04T01:14:53;6.97;;;4.80;;
77298;SDS011;66361;52.034;20.656;2023-06-04T01:23:18;6.72;;;4.65;;
77298;SDS011;66361;52.034;20.656;2023-06-04T01:27:30;6.30;;;4.43;;
77298;SDS011;66361;52.034;20.656;2023-06-04T01:31:36;6.18;;;4.60;;
77298;SDS011;66361;52.034;20.656;2023-06-04T01:35:42;6.65;;;4.93;;
77298;SDS011;66361;52.034;20.656;2023-06-04T01:39:47;6.70;;;4.82;;
77298;SDS011;66361;52.034;20.656;2023-06-04T01:43:50;6.50;;;5.70;;
77298;SDS011;66361;52.034;20.656;2023-06-04T01:47:53;7.88;;;4.07;;
77298;SDS011;66361;52.034;20.656;2023-06-04T01:51:56;8.93;;;5.05;;
77298;SDS011;66361;52.034;20.656;2023-06-04T01:56:01;9.05;;;5.30;;
77298;SDS011;66361;52.034;20.656;2023-06-04T02:00:08;7.40;;;5.07;;
77298;SDS011;66361;52.034;20.656;2023-06-04T02:04:13;7.70;;;4.93;;
77298;SDS011;66361;52.034;20.656;2023-06-04T02:08:17;6.50;;;4.57;;
77298;SDS011;66361;52.034;20.656;2023-06-04T02:12:22;9.10;;;5.05;;
77298;SDS011;66361;52.034;20.656;2023-06-04T02:16:25;8.75;;;5.13;;
77298;SDS011;66361;52.034;20.656;2023-06-04T02:24:31;8.20;;;5.35;;
77298;SDS011;66361;52.034;20.656;2023-06-04T02:28:36;7.97;;;4.68;;
77298;SDS011;66361;52.034;20.656;2023-06-04T02:32:39;7.68;;;4.85;;
77298;SDS011;66361;52.034;20.656;2023-06-04T02:36:42;7.60;;;4.97;;
77298;SDS011;66361;52.034;20.656;2023-06-04T02:40:51;7.32;;;4.70;;
77298;SDS011;66361;52.034;20.656;2023-06-04T02:44:56;10.60;;;4.75;;
77298;SDS011;66361;52.034;20.656;2023-06-04T02:48:59;7.60;;;4.63;;
77298;SDS011;66361;52.034;20.656;2023-06-04T02:53:02;6.30;;;4.82;;
77298;SDS011;66361;52.034;20.656;2023-06-04T02:57:06;6.90;;;4.30;;
77298;SDS011;66361;52.034;20.656;2023-06-04T03:01:14;6.60;;;4.15;;
77298;SDS011;66361;52.034;20.656;2023-06-04T03:05:20;8.77;;;5.35;;
77298;SDS011;66361;52.034;20.656;2023-06-04T03:09:25;7.25;;;5.00;;
77298;SDS011;66361;52.034;20.656;2023-06-04T03:13:28;9.27;;;5.43;;
77298;SDS011;66361;52.034;20.656;2023-06-04T03:17:33;9.10;;;4.38;;
77298;SDS011;66361;52.034;20.656;2023-06-04T03:21:36;5.78;;;3.78;;
77298;SDS011;66361;52.034;20.656;2023-06-04T03:25:40;7.07;;;4.97;;
77298;SDS011;66361;52.034;20.656;2023-06-04T03:29:43;8.13;;;5.40;;
77298;SDS011;66361;52.034;20.656;2023-06-04T03:33:48;6.18;;;4.38;;
77298;SDS011;66361;52.034;20.656;2023-06-04T03:37:51;7.20;;;4.75;;
77298;SDS011;66361;52.034;20.656;2023-06-04T03:41:54;6.18;;;3.80;;
77298;SDS011;66361;52.034;20.656;2023-06-04T03:45:57;9.18;;;4.70;;
77298;SDS011;66361;52.034;20.656;2023-06-04T03:50:02;8.18;;;5.10;;
77298;SDS011;66361;52.034;20.656;2023-06-04T03:54:06;7.90;;;4.63;;
77298;SDS011;66361;52.034;20.656;2023-06-04T03:58:09;6.18;;;4.47;;
77298;SDS011;66361;52.034;20.656;2023-06-04T04:02:13;8.43;;;5.03;;
77298;SDS011;66361;52.034;20.656;2023-06-04T04:06:19;5.28;;;3.63;;
77298;SDS011;66361;52.034;20.656;2023-06-04T04:10:23;5.72;;;4.05;;
77298;SDS011;66361;52.034;20.656;2023-06-04T04:18:32;7.15;;;3.55;;
77298;SDS011;66361;52.034;20.656;2023-06-04T04:22:41;5.00;;;3.25;;
77298;SDS011;66361;52.034;20.656;2023-06-04T04:26:44;4.07;;;3.03;;
77298;SDS011;66361;52.034;20.656;2023-06-04T04:30:47;5.10;;;3.20;;
77298;SDS011;66361;52.034;20.656;2023-06-04T04:34:51;2.60;;;2.20;;
77298;SDS011;66361;52.034;20.656;2023-06-04T04:38:57;4.13;;;2.22;;
77298;SDS011;66361;52.034;20.656;2023-06-04T04:43:00;4.10;;;2.70;;
77298;SDS011;66361;52.034;20.656;2023-06-04T04:47:04;3.60;;;2.63;;
77298;SDS011;66361;52.034;20.656;2023-06-04T04:51:07;4.68;;;2.00;;
77298;SDS011;66361;52.034;20.656;2023-06-04T04:55:11;3.53;;;2.30;;
77298;SDS011;66361;52.034;20.656;2023-06-04T04:59:14;2.92;;;2.15;;
77298;SDS011;66361;52.034;20.656;2023-06-04T05:03:17;4.53;;;2.55;;
77298;SDS011;66361;52.034;20.656;2023-06-04T05:07:21;3.60;;;2.13;;
77298;SDS011;66361;52.034;20.656;2023-06-04T05:11:27;3.60;;;2.33;;
77298;SDS011;66361;52.034;20.656;2023-06-04T05:15:32;3.00;;;2.47;;
77298;SDS011;66361;52.034;20.656;2023-06-04T05:19:36;3.70;;;1.83;;
77298;SDS011;66361;52.034;20.656;2023-06-04T05:23:39;2.60;;;2.05;;
77298;SDS011;66361;52.034;20.656;2023-06-04T05:27:45;5.20;;;2.40;;
77298;SDS011;66361;52.034;20.656;2023-06-04T05:31:50;2.70;;;1.85;;
77298;SDS011;66361;52.034;20.656;2023-06-04T05:35:54;2.38;;;1.70;;
77298;SDS011;66361;52.034;20.656;2023-06-04T05:39:58;3.13;;;1.98;;
77298;SDS011;66361;52.034;20.656;2023-06-04T05:44:03;2.55;;;1.80;;
77298;SDS011;66361;52.034;20.656;2023-06-04T05:48:06;3.50;;;2.30;;
77298;SDS011;66361;52.034;20.656;2023-06-04T05:52:11;3.15;;;1.70;;
77298;SDS011;66361;52.034;20.656;2023-06-04T05:56:14;2.47;;;1.60;;
77298;SDS011;66361;52.034;20.656;2023-06-04T06:00:24;2.83;;;1.60;;
77298;SDS011;66361;52.034;20.656;2023-06-04T06:04:28;2.53;;;1.73;;
77298;SDS011;66361;52.034;20.656;2023-06-04T06:08:30;1.98;;;1.42;;
77298;SDS011;66361;52.034;20.656;2023-06-04T06:12:33;2.20;;;1.50;;
77298;SDS011;66361;52.034;20.656;2023-06-04T06:16:40;2.97;;;1.75;;
77298;SDS011;66361;52.034;20.656;2023-06-04T06:20:42;3.05;;;1.80;;
77298;SDS011;66361;52.034;20.656;2023-06-04T06:24:45;2.72;;;1.60;;
77298;SDS011;66361;52.034;20.656;2023-06-04T06:28:49;3.10;;;1.63;;
77298;SDS011;66361;52.034;20.656;2023-06-04T06:32:54;3.13;;;1.50;;
77298;SDS011;66361;52.034;20.656;2023-06-04T06:36:57;5.28;;;1.30;;
77298;SDS011;66361;52.034;20.656;2023-06-04T06:41:00;1.95;;;1.48;;
77298;SDS011;66361;52.034;20.656;2023-06-04T06:45:04;2.00;;;1.30;;
77298;SDS011;66361;52.034;20.656;2023-06-04T06:49:08;3.63;;;1.40;;
77298;SDS011;66361;52.034;20.656;2023-06-04T06:53:11;2.25;;;1.60;;
77298;SDS011;66361;52.034;20.656;2023-06-04T06:57:14;2.15;;;1.60;;
77298;SDS011;66361;52.034;20.656;2023-06-04T07:01:18;1.95;;;1.25;;
77298;SDS011;66361;52.034;20.656;2023-06-04T07:05:22;1.55;;;1.15;;
77298;SDS011;66361;52.034;20.656;2023-06-04T07:09:25;3.35;;;1.42;;
77298;SDS011;66361;52.034;20.656;2023-06-04T07:13:30;2.00;;;1.23;;
77298;SDS011;66361;52.034;20.656;2023-06-04T07:17:36;2.08;;;1.45;;
77298;SDS011;66361;52.034;20.656;2023-06-04T07:21:40;4.80;;;1.90;;
77298;SDS011;66361;52.034;20.656;2023-06-04T07:25:44;3.78;;;1.27;;
77298;SDS011;66361;52.034;20.656;2023-06-04T07:29:47;2.10;;;1.30;;
77298;SDS011;66361;52.034;20.656;2023-06-04T07:33:50;2.80;;;1.30;;
77298;SDS011;66361;52.034;20.656;2023-06-04T07:37:55;2.88;;;1.42;;
77298;SDS011;66361;52.034;20.656;2023-06-04T07:41:58;1.90;;;1.50;;
77298;SDS011;66361;52.034;20.656;2023-06-04T07:46:01;3.42;;;1.58;;
77298;SDS011;66361;52.034;20.656;2023-06-04T07:50:05;1.73;;;1.38;;
77298;SDS011;66361;52.034;20.656;2023-06-04T07:54:10;9.98;;;1.80;;
77298;SDS011;66361;52.034;20.656;2023-06-04T07:58:15;2.25;;;1.30;;
77298;SDS011;66361;52.034;20.656;2023-06-04T08:02:17;2.15;;;1.40;;
77298;SDS011;66361;52.034;20.656;2023-06-04T08:06:21;1.80;;;1.40;;
77298;SDS011;66361;52.034;20.656;2023-06-04T08:10:26;3.05;;;1.40;;
77298;SDS011;66361;52.034;20.656;2023-06-04T08:14:30;2.38;;;1.48;;
77298;SDS011;66361;52.034;20.656;2023-06-04T08:18:33;2.00;;;1.30;;
77298;SDS011;66361;52.034;20.656;2023-06-04T08:22:40;4.53;;;1.58;;
77298;SDS011;66361;52.034;20.656;2023-06-04T08:26:44;2.58;;;1.80;;
77298;SDS011;66361;52.034;20.656;2023-06-04T08:30:48;8.02;;;2.03;;
77298;SDS011;66361;52.034;20.656;2023-06-04T08:34:51;4.78;;;1.45;;
77298;SDS011;66361;52.034;20.656;2023-06-04T08:38:54;5.78;;;2.67;;
77298;SDS011;66361;52.034;20.656;2023-06-04T08:42:59;11.88;;;1.70;;
77298;SDS011;66361;52.034;20.656;2023-06-04T08:47:04;2.50;;;1.30;;
77298;SDS011;66361;52.034;20.656;2023-06-04T08:51:08;9.35;;;2.13;;
77298;SDS011;66361;52.034;20.656;2023-06-04T08:55:13;3.90;;;1.60;;
77298;SDS011;66361;52.034;20.656;2023-06-04T08:59:18;2.92;;;1.30;;
77298;SDS011;66361;52.034;20.656;2023-06-04T09:03:21;2.42;;;1.58;;
77298;SDS011;66361;52.034;20.656;2023-06-04T09:07:26;2.63;;;1.25;;
77298;SDS011;66361;52.034;20.656;2023-06-04T09:11:30;5.63;;;2.00;;
77298;SDS011;66361;52.034;20.656;2023-06-04T09:15:38;1.60;;;1.10;;
77298;SDS011;66361;52.034;20.656;2023-06-04T09:19:41;18.65;;;2.60;;
77298;SDS011;66361;52.034;20.656;2023-06-04T09:23:44;2.92;;;1.88;;
77298;SDS011;66361;52.034;20.656;2023-06-04T09:27:48;2.33;;;1.20;;
77298;SDS011;66361;52.034;20.656;2023-06-04T09:31:58;1.77;;;1.35;;
77298;SDS011;66361;52.034;20.656;2023-06-04T09:36:02;3.33;;;1.40;;
77298;SDS011;66361;52.034;20.656;2023-06-04T09:40:08;3.03;;;1.50;;
77298;SDS011;66361;52.034;20.656;2023-06-04T09:44:12;3.67;;;1.30;;
77298;SDS011;66361;52.034;20.656;2023-06-04T09:48:21;1.52;;;1.30;;
77298;SDS011;66361;52.034;20.656;2023-06-04T09:52:31;1.80;;;1.55;;
77298;SDS011;66361;52.034;20.656;2023-06-04T09:56:39;3.40;;;2.70;;
77298;SDS011;66361;52.034;20.656;2023-06-04T10:00:43;5.68;;;3.75;;
77298;SDS011;66361;52.034;20.656;2023-06-04T10:04:52;4.97;;;1.50;;
77298;SDS011;66361;52.034;20.656;2023-06-04T10:08:57;3.42;;;1.90;;
77298;SDS011;66361;52.034;20.656;2023-06-04T10:13:07;6.85;;;1.70;;
77298;SDS011;66361;52.034;20.656;2023-06-04T10:17:17;1.85;;;1.30;;
77298;SDS011;66361;52.034;20.656;2023-06-04T10:21:25;1.42;;;1.17;;
77298;SDS011;66361;52.034;20.656;2023-06-04T10:25:29;6.40;;;1.52;;
77298;SDS011;66361;52.034;20.656;2023-06-04T10:29:33;98.65;;;8.80;;
77298;SDS011;66361;52.034;20.656;2023-06-04T10:33:35;18.05;;;1.92;;
77298;SDS011;66361;52.034;20.656;2023-06-04T10:37:41;4.05;;;1.35;;
77298;SDS011;66361;52.034;20.656;2023-06-04T10:41:43;2.10;;;1.30;;
77298;SDS011;66361;52.034;20.656;2023-06-04T10:45:48;2.13;;;1.33;;
77298;SDS011;66361;52.034;20.656;2023-06-04T10:49:51;5.03;;;1.85;;
77298;SDS011;66361;52.034;20.656;2023-06-04T10:53:56;13.25;;;2.00;;
77298;SDS011;66361;52.034;20.656;2023-06-04T10:58:00;1.52;;;1.27;;
77298;SDS011;66361;52.034;20.656;2023-06-04T11:02:05;1.65;;;1.42;;
77298;SDS011;66361;52.034;20.656;2023-06-04T11:06:17;2.10;;;1.40;;
77298;SDS011;66361;52.034;20.656;2023-06-04T11:10:29;2.70;;;1.30;;
77298;SDS011;66361;52.034;20.656;2023-06-04T11:14:34;2.63;;;1.40;;
77298;SDS011;66361;52.034;20.656;2023-06-04T11:18:41;2.30;;;1.70;;
77298;SDS011;66361;52.034;20.656;2023-06-04T11:22:49;2.67;;;1.73;;
77298;SDS011;66361;52.034;20.656;2023-06-04T11:26:56;6.28;;;1.95;;
77298;SDS011;66361;52.034;20.656;2023-06-04T11:31:07;5.57;;;1.42;;
77298;SDS011;66361;52.034;20.656;2023-06-04T11:35:11;25.98;;;2.28;;
77298;SDS011;66361;52.034;20.656;2023-06-04T11:39:14;3.05;;;1.40;;
77298;SDS011;66361;52.034;20.656;2023-06-04T11:43:18;2.88;;;1.50;;
77298;SDS011;66361;52.034;20.656;2023-06-04T11:47:22;3.05;;;1.10;;
77298;SDS011;66361;52.034;20.656;2023-06-04T11:51:25;1.73;;;1.30;;
77298;SDS011;66361;52.034;20.656;2023-06-04T11:55:28;3.83;;;1.98;;
77298;SDS011;66361;52.034;20.656;2023-06-04T11:59:33;2.97;;;1.30;;
77298;SDS011;66361;52.034;20.656;2023-06-04T12:03:37;8.60;;;2.22;;
77298;SDS011;66361;52.034;20.656;2023-06-04T12:07:41;3.20;;;1.52;;
77298;SDS011;66361;52.034;20.656;2023-06-04T12:11:45;3.30;;;2.03;;
77298;SDS011;66361;52.034;20.656;2023-06-04T12:15:52;4.15;;;1.80;;
77298;SDS011;66361;52.034;20.656;2023-06-04T12:19:55;1.88;;;1.45;;
77298;SDS011;66361;52.034;20.656;2023-06-04T12:24:06;1.40;;;1.20;;
77298;SDS011;66361;52.034;20.656;2023-06-04T12:28:16;1.23;;;1.10;;
77298;SDS011;66361;52.034;20.656;2023-06-04T12:32:23;2.08;;;1.10;;
77298;SDS011;66361;52.034;20.656;2023-06-04T12:36:26;2.03;;;1.45;;
77298;SDS011;66361;52.034;20.656;2023-06-04T12:40:34;1.70;;;1.30;;
77298;SDS011;66361;52.034;20.656;2023-06-04T12:44:38;1.92;;;1.30;;
77298;SDS011;66361;52.034;20.656;2023-06-04T12:48:44;1.75;;;1.30;;
77298;SDS011;66361;52.034;20.656;2023-06-04T12:52:46;3.00;;;1.30;;
77298;SDS011;66361;52.034;20.656;2023-06-04T12:56:50;3.13;;;2.17;;
77298;SDS011;66361;52.034;20.656;2023-06-04T13:00:53;1.52;;;1.20;;
77298;SDS011;66361;52.034;20.656;2023-06-04T13:04:57;2.72;;;1.40;;
77298;SDS011;66361;52.034;20.656;2023-06-04T13:09:00;2.97;;;2.05;;
77298;SDS011;66361;52.034;20.656;2023-06-04T13:13:05;2.72;;;1.20;;
77298;SDS011;66361;52.034;20.656;2023-06-04T13:17:08;1.80;;;1.40;;
77298;SDS011;66361;52.034;20.656;2023-06-04T13:21:25;2.00;;;1.50;;
77298;SDS011;66361;52.034;20.656;2023-06-04T13:25:28;1.52;;;1.17;;
77298;SDS011;66361;52.034;20.656;2023-06-04T13:29:33;3.15;;;1.60;;
77298;SDS011;66361;52.034;20.656;2023-06-04T13:33:37;9.02;;;1.60;;
77298;SDS011;66361;52.034;20.656;2023-06-04T13:37:41;1.63;;;1.30;;
77298;SDS011;66361;52.034;20.656;2023-06-04T13:41:44;19.30;;;13.18;;
77298;SDS011;66361;52.034;20.656;2023-06-04T13:45:47;4.00;;;2.42;;
77298;SDS011;66361;52.034;20.656;2023-06-04T13:49:50;13.70;;;8.65;;
77298;SDS011;66361;52.034;20.656;2023-06-04T13:53:55;4.85;;;1.90;;
77298;SDS011;66361;52.034;20.656;2023-06-04T13:57:58;25.67;;;2.08;;
77298;SDS011;66361;52.034;20.656;2023-06-04T14:02:04;1.55;;;1.30;;
77298;SDS011;66361;52.034;20.656;2023-06-04T14:06:08;3.80;;;1.52;;
77298;SDS011;66361;52.034;20.656;2023-06-04T14:10:15;4.05;;;2.17;;
77298;SDS011;66361;52.034;20.656;2023-06-04T14:14:20;2.30;;;1.67;;
77298;SDS011;66361;52.034;20.656;2023-06-04T14:18:23;16.48;;;1.98;;
77298;SDS011;66361;52.034;20.656;2023-06-04T14:22:27;2.15;;;1.40;;
77298;SDS011;66361;52.034;20.656;2023-06-04T14:26:31;3.60;;;1.45;;
77298;SDS011;66361;52.034;20.656;2023-06-04T14:30:36;3.17;;;1.50;;
77298;SDS011;66361;52.034;20.656;2023-06-04T14:34:39;3.45;;;1.60;;
77298;SDS011;66361;52.034;20.656;2023-06-04T14:38:43;15.88;;;2.67;;
77298;SDS011;66361;52.034;20.656;2023-06-04T14:42:48;1.75;;;1.30;;
77298;SDS011;66361;52.034;20.656;2023-06-04T14:46:51;5.22;;;1.50;;
77298;SDS011;66361;52.034;20.656;2023-06-04T14:50:54;3.00;;;1.30;;
77298;SDS011;66361;52.034;20.656;2023-06-04T14:54:58;8.18;;;1.65;;
77298;SDS011;66361;52.034;20.656;2023-06-04T14:59:03;3.67;;;1.33;;
77298;SDS011;66361;52.034;20.656;2023-06-04T15:03:14;2.65;;;1.30;;
77298;SDS011;66361;52.034;20.656;2023-06-04T15:07:17;3.22;;;1.60;;
77298;SDS011;66361;52.034;20.656;2023-06-04T15:11:20;13.05;;;1.70;;
77298;SDS011;66361;52.034;20.656;2023-06-04T15:15:24;3.70;;;1.55;;
77298;SDS011;66361;52.034;20.656;2023-06-04T15:19:28;3.63;;;1.85;;
77298;SDS011;66361;52.034;20.656;2023-06-04T15:23:30;2.92;;;1.42;;
77298;SDS011;66361;52.034;20.656;2023-06-04T15:27:34;2.88;;;1.50;;
77298;SDS011;66361;52.034;20.656;2023-06-04T15:31:38;15.48;;;2.22;;
77298;SDS011;66361;52.034;20.656;2023-06-04T15:35:41;2.65;;;1.75;;
77298;SDS011;66361;52.034;20.656;2023-06-04T15:39:44;141.30;;;10.40;;
77298;SDS011;66361;52.034;20.656;2023-06-04T15:43:48;7.95;;;1.80;;
77298;SDS011;66361;52.034;20.656;2023-06-04T15:47:55;2.35;;;1.65;;
77298;SDS011;66361;52.034;20.656;2023-06-04T15:51:58;4.55;;;2.38;;
77298;SDS011;66361;52.034;20.656;2023-06-04T15:56:01;5.15;;;1.50;;
77298;SDS011;66361;52.034;20.656;2023-06-04T16:00:06;5.70;;;1.55;;
77298;SDS011;66361;52.034;20.656;2023-06-04T16:04:13;5.90;;;1.70;;
77298;SDS011;66361;52.034;20.656;2023-06-04T16:08:17;40.22;;;3.50;;
77298;SDS011;66361;52.034;20.656;2023-06-04T16:12:21;85.75;;;5.22;;
77298;SDS011;66361;52.034;20.656;2023-06-04T16:16:25;2.83;;;1.40;;
77298;SDS011;66361;52.034;20.656;2023-06-04T16:20:29;3.83;;;1.50;;
77298;SDS011;66361;52.034;20.656;2023-06-04T16:24:32;2.72;;;1.30;;
77298;SDS011;66361;52.034;20.656;2023-06-04T16:28:36;9.10;;;1.80;;
77298;SDS011;66361;52.034;20.656;2023-06-04T16:32:41;1.73;;;1.40;;
77298;SDS011;66361;52.034;20.656;2023-06-04T16:36:46;2.00;;;1.33;;
77298;SDS011;66361;52.034;20.656;2023-06-04T16:40:50;1.38;;;1.10;;
77298;SDS011;66361;52.034;20.656;2023-06-04T16:44:53;2.00;;;1.23;;
77298;SDS011;66361;52.034;20.656;2023-06-04T16:48:56;2.45;;;1.90;;
77298;SDS011;66361;52.034;20.656;2023-06-04T16:53:01;3.03;;;1.50;;
77298;SDS011;66361;52.034;20.656;2023-06-04T16:57:04;38.65;;;4.10;;
77298;SDS011;66361;52.034;20.656;2023-06-04T17:01:07;2.70;;;1.30;;
77298;SDS011;66361;52.034;20.656;2023-06-04T17:05:12;5.90;;;1.60;;
77298;SDS011;66361;52.034;20.656;2023-06-04T17:09:27;2.15;;;1.52;;
77298;SDS011;66361;52.034;20.656;2023-06-04T17:13:30;2.40;;;1.42;;
77298;SDS011;66361;52.034;20.656;2023-06-04T17:17:34;2.58;;;1.70;;
77298;SDS011;66361;52.034;20.656;2023-06-04T17:21:37;5.95;;;2.13;;
77298;SDS011;66361;52.034;20.656;2023-06-04T17:25:41;187.48;;;16.00;;
77298;SDS011;66361;52.034;20.656;2023-06-04T17:29:45;32.85;;;4.05;;
77298;SDS011;66361;52.034;20.656;2023-06-04T17:33:49;2.25;;;1.45;;
77298;SDS011;66361;52.034;20.656;2023-06-04T17:37:53;30.98;;;3.28;;
77298;SDS011;66361;52.034;20.656;2023-06-04T17:41:58;44.80;;;5.70;;
77298;SDS011;66361;52.034;20.656;2023-06-04T17:46:01;4.95;;;2.10;;
77298;SDS011;66361;52.034;20.656;2023-06-04T17:50:05;18.83;;;3.30;;
77298;SDS011;66361;52.034;20.656;2023-06-04T17:54:10;9.05;;;2.13;;
77298;SDS011;66361;52.034;20.656;2023-06-04T17:58:15;10.80;;;2.92;;
77298;SDS011;66361;52.034;20.656;2023-06-04T18:02:19;3.67;;;2.05;;
77298;SDS011;66361;52.034;20.656;2023-06-04T18:06:24;7.63;;;2.33;;
77298;SDS011;66361;52.034;20.656;2023-06-04T18:10:27;6.85;;;2.15;;
77298;SDS011;66361;52.034;20.656;2023-06-04T18:14:32;101.07;;;9.25;;
77298;SDS011;66361;52.034;20.656;2023-06-04T18:18:35;3.47;;;1.92;;
77298;SDS011;66361;52.034;20.656;2023-06-04T18:22:38;5.38;;;2.80;;
77298;SDS011;66361;52.034;20.656;2023-06-04T18:26:42;5.13;;;3.00;;
77298;SDS011;66361;52.034;20.656;2023-06-04T18:30:47;4.20;;;2.88;;
77298;SDS011;66361;52.034;20.656;2023-06-04T18:34:51;2.95;;;2.30;;
77298;SDS011;66361;52.034;20.656;2023-06-04T18:38:55;3.05;;;2.40;;
77298;SDS011;66361;52.034;20.656;2023-06-04T18:42:58;7.80;;;3.40;;
77298;SDS011;66361;52.034;20.656;2023-06-04T18:47:03;9.10;;;6.30;;
77298;SDS011;66361;52.034;20.656;2023-06-04T18:51:12;7.60;;;6.78;;
77298;SDS011;66361;52.034;20.656;2023-06-04T18:55:16;6.70;;;5.75;;
77298;SDS011;66361;52.034;20.656;2023-06-04T18:59:19;6.60;;;4.85;;
77298;SDS011;66361;52.034;20.656;2023-06-04T19:03:24;9.00;;;5.63;;
77298;SDS011;66361;52.034;20.656;2023-06-04T19:07:29;8.32;;;6.07;;
77298;SDS011;66361;52.034;20.656;2023-06-04T19:11:33;6.53;;;5.43;;
77298;SDS011;66361;52.034;20.656;2023-06-04T19:15:38;5.78;;;4.80;;
77298;SDS011;66361;52.034;20.656;2023-06-04T19:19:44;6.05;;;4.03;;
77298;SDS011;66361;52.034;20.656;2023-06-04T19:23:49;5.70;;;3.33;;
77298;SDS011;66361;52.034;20.656;2023-06-04T19:27:53;5.53;;;3.55;;
77298;SDS011;66361;52.034;20.656;2023-06-04T19:31:57;6.05;;;3.75;;
77298;SDS011;66361;52.034;20.656;2023-06-04T19:36:02;4.53;;;3.40;;
77298;SDS011;66361;52.034;20.656;2023-06-04T19:40:07;3.47;;;3.17;;
77298;SDS011;66361;52.034;20.656;2023-06-04T19:44:11;5.35;;;3.30;;
77298;SDS011;66361;52.034;20.656;2023-06-04T19:48:14;5.88;;;3.10;;
77298;SDS011;66361;52.034;20.656;2023-06-04T19:52:19;5.32;;;3.10;;
77298;SDS011;66361;52.034;20.656;2023-06-04T19:56:23;4.68;;;3.17;;
77298;SDS011;66361;52.034;20.656;2023-06-04T20:00:30;3.10;;;2.80;;
77298;SDS011;66361;52.034;20.656;2023-06-04T20:04:34;4.55;;;3.22;;
77298;SDS011;66361;52.034;20.656;2023-06-04T20:08:39;4.75;;;2.83;;
77298;SDS011;66361;52.034;20.656;2023-06-04T20:12:46;8.77;;;3.67;;
77298;SDS011;66361;52.034;20.656;2023-06-04T20:16:49;4.63;;;2.70;;
77298;SDS011;66361;52.034;20.656;2023-06-04T20:20:52;3.67;;;2.97;;
77298;SDS011;66361;52.034;20.656;2023-06-04T20:24:58;5.53;;;4.03;;
77298;SDS011;66361;52.034;20.656;2023-06-04T20:29:01;7.40;;;3.22;;
77298;SDS011;66361;52.034;20.656;2023-06-04T20:33:05;7.60;;;4.45;;
77298;SDS011;66361;52.034;20.656;2023-06-04T20:37:09;3.72;;;3.08;;
77298;SDS011;66361;52.034;20.656;2023-06-04T20:41:13;4.65;;;3.85;;
77298;SDS011;66361;52.034;20.656;2023-06-04T20:45:16;9.00;;;5.78;;
77298;SDS011;66361;52.034;20.656;2023-06-04T20:49:21;10.63;;;5.35;;
77298;SDS011;66361;52.034;20.656;2023-06-04T20:53:24;9.65;;;5.95;;
77298;SDS011;66361;52.034;20.656;2023-06-04T20:57:33;9.27;;;7.28;;
77298;SDS011;66361;52.034;20.656;2023-06-04T21:01:43;9.15;;;6.82;;
77298;SDS011;66361;52.034;20.656;2023-06-04T21:05:46;11.30;;;8.23;;
77298;SDS011;66361;52.034;20.656;2023-06-04T21:09:49;8.10;;;5.85;;
77298;SDS011;66361;52.034;20.656;2023-06-04T21:13:54;8.27;;;5.68;;
77298;SDS011;66361;52.034;20.656;2023-06-04T21:17:57;10.43;;;6.40;;
77298;SDS011;66361;52.034;20.656;2023-06-04T21:22:01;8.05;;;5.40;;
77298;SDS011;66361;52.034;20.656;2023-06-04T21:26:03;7.72;;;5.05;;
77298;SDS011;66361;52.034;20.656;2023-06-04T21:30:08;12.88;;;5.32;;
77298;SDS011;66361;52.034;20.656;2023-06-04T21:34:12;11.00;;;6.20;;
77298;SDS011;66361;52.034;20.656;2023-06-04T21:38:15;11.20;;;7.63;;
77298;SDS011;66361;52.034;20.656;2023-06-04T21:42:19;29.55;;;15.80;;
77298;SDS011;66361;52.034;20.656;2023-06-04T21:46:23;19.75;;;11.98;;
77298;SDS011;66361;52.034;20.656;2023-06-04T21:50:27;13.15;;;7.50;;
77298;SDS011;66361;52.034;20.656;2023-06-04T21:54:31;14.88;;;7.40;;
77298;SDS011;66361;52.034;20.656;2023-06-04T22:02:38;10.68;;;5.53;;
77298;SDS011;66361;52.034;20.656;2023-06-04T22:06:41;13.23;;;6.88;;
77298;SDS011;66361;52.034;20.656;2023-06-04T22:10:47;14.48;;;8.65;;
77298;SDS011;66361;52.034;20.656;2023-06-04T22:14:50;12.80;;;7.38;;
77298;SDS011;66361;52.034;20.656;2023-06-04T22:18:55;11.70;;;5.93;;
77298;SDS011;66361;52.034;20.656;2023-06-04T22:22:58;12.65;;;7.07;;
77298;SDS011;66361;52.034;20.656;2023-06-04T22:27:01;12.40;;;8.80;;
77298;SDS011;66361;52.034;20.656;2023-06-04T22:31:04;14.68;;;8.82;;
77298;SDS011;66361;52.034;20.656;2023-06-04T22:35:09;14.75;;;9.05;;
77298;SDS011;66361;52.034;20.656;2023-06-04T22:39:12;13.75;;;8.25;;
77298;SDS011;66361;52.034;20.656;2023-06-04T22:43:14;10.45;;;6.93;;
77298;SDS011;66361;52.034;20.656;2023-06-04T22:51:21;11.20;;;6.75;;
77298;SDS011;66361;52.034;20.656;2023-06-04T22:55:25;13.10;;;7.07;;
77298;SDS011;66361;52.034;20.656;2023-06-04T22:59:28;9.77;;;6.75;;
77298;SDS011;66361;52.034;20.656;2023-06-04T23:03:31;12.02;;;6.88;;
77298;SDS011;66361;52.034;20.656;2023-06-04T23:07:36;10.95;;;7.80;;
77298;SDS011;66361;52.034;20.656;2023-06-04T23:11:39;10.13;;;6.95;;
77298;SDS011;66361;52.034;20.656;2023-06-04T23:15:44;13.43;;;6.57;;
77298;SDS011;66361;52.034;20.656;2023-06-04T23:23:51;12.98;;;6.10;;
77298;SDS011;66361;52.034;20.656;2023-06-04T23:27:54;11.82;;;5.32;;
77298;SDS011;66361;52.034;20.656;2023-06-04T23:31:58;10.32;;;5.07;;
77298;SDS011;66361;52.034;20.656;2023-06-04T23:36:01;13.10;;;5.32;;
77298;SDS011;66361;52.034;20.656;2023-06-04T23:40:06;10.60;;;5.63;;
77298;SDS011;66361;52.034;20.656;2023-06-04T23:44:09;10.38;;;5.55;;
77298;SDS011;66361;52.034;20.656;2023-06-04T23:48:12;6.85;;;4.70;;
77298;SDS011;66361;52.034;20.656;2023-06-04T23:52:17;10.27;;;5.68;;
77298;SDS011;66361;52.034;20.656;2023-06-04T23:56:21;10.90;;;5.18;;
